Aérodrome :
LOGIN :

S'inscrire | Disclaimer

   EN    FR    IT 

 










Légende :    VFR   VFR Marginal   IFR   IFR Intensif   IFR Très Intensif
Visi : 
Plafond : 
>= 8 km
>= 3000ft
5 à 8 km
1000 à 3000 ft
1500m à 5 km
500 à 1000 ft
800 à 1500m
200 à 500 ft
< 800m
< 200 ft
Symboles :   Orages  Brouillard  Fortes neiges  Fortes précipitations  Vent > 20 kt
SIGMETs :   Divers  Orages  Givrage  Turbulence  Onde Orograph.  Cendres Volcan.






- Altitude de l'aérodrome : 427 ft
- Code IATA : CIA


LIRA - Roma Ciampino

DERNIER METAR :
  • 200120Z 03004KT 9999 -RA FEW020 SCT060 11/10 Q1013

METARs EXPIRÉS :
  • 200050Z 05003KT 9999 -RA FEW020 SCT070 11/10 Q1013
  • 200020Z 05003KT 020V090 9999 FEW020 SCT070 11/10 Q1013
  • 192350Z 13003KT 9999 -RA SCT020 BKN070 11/10 Q1013
  • 192320Z 27003KT 9999 DZ BKN070 12/09 Q1013
  • 192250Z 27005KT 9999 -DZ SCT060 12/09 Q1013
  • 192220Z 22002KT 9999 SCT040 12/08 Q1013

TAF TAF LIRA
Valide du 20 à 00h jusqu'au 21 à 00h UTC


192300Z 2000/2024 VRB05KT 9999 SCT020 BKN040
TEMPO 2000/2006 4000 SHRA



MET'MAP, la Météo Aéronautique d'un coup d'oeil ! - Copyright ORBIFLY Décembre 2007 - Disclaimer

ORBIFLY MET'MAP TEAM :

Programmation & Développement : Alexandra Zaïnal
Conception & Développement : Baudouin d'Aumeries
Co-Programmation & Développement : Marc-Olivier Méhu
Soutien technique & logistique : Manuel Goepfert

Contact : metmap@orbifly.com




SOURCES & CREDITS :

   NOAA